createdAt,value
2017-05-16T00:00:30.875Z,0
2017-05-16T00:01:11.387Z,0
2017-05-16T00:01:51.915Z,0
2017-05-16T00:02:32.461Z,0
2017-05-16T00:03:12.968Z,0
2017-05-16T00:03:53.485Z,0
2017-05-16T00:04:34.011Z,0
2017-05-16T00:05:14.545Z,0
2017-05-16T00:05:55.081Z,0
2017-05-16T00:06:35.620Z,0
2017-05-16T00:07:16.141Z,0
2017-05-16T00:07:56.669Z,0
2017-05-16T00:08:37.181Z,0
2017-05-16T00:09:17.731Z,0
2017-05-16T00:09:58.253Z,0
2017-05-16T00:10:38.765Z,0
2017-05-16T00:11:19.260Z,0
2017-05-16T00:11:59.793Z,0
2017-05-16T00:12:40.285Z,0
2017-05-16T00:13:20.813Z,0
2017-05-16T00:14:01.366Z,0
2017-05-16T00:14:41.884Z,0
2017-05-16T00:15:22.416Z,0
2017-05-16T00:16:02.949Z,0
2017-05-16T00:16:43.490Z,0
2017-05-16T00:17:23.987Z,0
2017-05-16T00:18:04.504Z,0
2017-05-16T00:18:45.020Z,0
2017-05-16T00:19:25.558Z,0
2017-05-16T00:20:06.085Z,0
2017-05-16T00:20:46.605Z,0
2017-05-16T00:21:27.123Z,0
2017-05-16T00:22:07.645Z,0
2017-05-16T00:22:48.193Z,0
2017-05-16T00:23:28.679Z,0
2017-05-16T00:24:09.196Z,0
2017-05-16T00:24:49.713Z,0
2017-05-16T00:25:30.225Z,0
2017-05-16T00:26:10.750Z,0
2017-05-16T00:26:51.286Z,0
2017-05-16T00:27:31.799Z,0
2017-05-16T00:28:12.317Z,0
2017-05-16T00:28:52.836Z,0
2017-05-16T00:29:33.346Z,0
2017-05-16T00:30:13.885Z,0
2017-05-16T00:30:54.396Z,0
2017-05-16T00:31:34.918Z,0
2017-05-16T00:32:15.444Z,0
2017-05-16T00:32:55.971Z,0
2017-05-16T00:33:36.475Z,0
2017-05-16T00:34:16.974Z,0
2017-05-16T00:34:57.466Z,0
2017-05-16T00:35:37.978Z,0
2017-05-16T00:36:18.513Z,0
2017-05-16T00:36:59.028Z,0
2017-05-16T00:37:39.551Z,0
2017-05-16T00:38:20.083Z,0
2017-05-16T00:39:00.604Z,0
2017-05-16T00:39:41.136Z,0
2017-05-16T00:40:21.676Z,0
2017-05-16T00:41:02.180Z,0
2017-05-16T00:41:42.712Z,0
2017-05-16T00:42:23.267Z,0
2017-05-16T00:43:03.753Z,0
2017-05-16T00:43:44.273Z,0
2017-05-16T00:44:24.799Z,0
2017-05-16T00:45:05.317Z,0
2017-05-16T00:45:45.838Z,0
2017-05-16T00:46:26.346Z,0
2017-05-16T00:47:06.876Z,0
2017-05-16T00:47:47.366Z,0
2017-05-16T00:48:27.889Z,0
2017-05-16T00:49:08.412Z,0
2017-05-16T00:49:48.933Z,0
2017-05-16T00:50:29.468Z,0
2017-05-16T00:51:09.958Z,0
2017-05-16T00:51:50.487Z,0
2017-05-16T00:52:30.968Z,0
2017-05-16T00:53:11.429Z,0
2017-05-16T00:53:51.940Z,0
2017-05-16T00:54:32.461Z,0
2017-05-16T00:55:12.970Z,0
2017-05-16T00:55:53.494Z,0
2017-05-16T00:56:34.004Z,0
2017-05-16T00:57:14.536Z,0
2017-05-16T00:57:55.056Z,0
2017-05-16T00:58:35.580Z,0
2017-05-16T00:59:16.110Z,0
2017-05-16T00:59:56.633Z,0
2017-05-16T01:00:37.156Z,0
2017-05-16T01:01:17.678Z,0
2017-05-16T01:01:58.223Z,0
2017-05-16T01:02:38.789Z,0
2017-05-16T01:03:19.279Z,0
2017-05-16T01:03:59.816Z,0
2017-05-16T01:04:40.311Z,0
2017-05-16T01:05:20.895Z,0
2017-05-16T01:06:01.432Z,0
2017-05-16T01:06:41.956Z,0
2017-05-16T01:07:22.461Z,0
2017-05-16T01:08:03.002Z,0
2017-05-16T01:08:43.565Z,0
2017-05-16T01:09:24.091Z,0
2017-05-16T01:10:04.614Z,0
2017-05-16T01:10:45.117Z,0
2017-05-16T01:11:25.635Z,0
2017-05-16T01:12:06.156Z,0
2017-05-16T01:12:46.697Z,0
2017-05-16T01:13:27.193Z,0
2017-05-16T01:14:07.708Z,0
2017-05-16T01:14:48.209Z,0
2017-05-16T01:15:28.687Z,0
2017-05-16T01:16:09.207Z,0
2017-05-16T01:16:49.720Z,0
2017-05-16T01:17:30.250Z,0
2017-05-16T01:18:10.772Z,0
2017-05-16T01:18:51.300Z,0
2017-05-16T01:19:31.843Z,0
2017-05-16T01:20:12.362Z,0
2017-05-16T01:20:52.883Z,0
2017-05-16T01:21:33.402Z,0
2017-05-16T01:22:13.914Z,0
2017-05-16T01:22:54.423Z,0
2017-05-16T01:23:34.947Z,0
2017-05-16T01:24:15.468Z,0
2017-05-16T01:24:55.993Z,0
2017-05-16T01:25:36.506Z,0
2017-05-16T01:26:17.060Z,0
2017-05-16T01:26:57.573Z,0
2017-05-16T01:27:38.088Z,0
2017-05-16T01:28:18.658Z,0
2017-05-16T01:28:59.159Z,0
2017-05-16T01:29:39.675Z,0
2017-05-16T01:30:20.176Z,0
2017-05-16T01:31:00.709Z,0
2017-05-16T01:31:41.235Z,0
2017-05-16T01:32:21.694Z,0
2017-05-16T01:33:02.216Z,0
2017-05-16T01:33:42.720Z,0
2017-05-16T01:34:23.245Z,0
2017-05-16T01:35:03.755Z,0
2017-05-16T01:35:44.273Z,0
2017-05-16T01:36:24.833Z,0
2017-05-16T01:37:05.286Z,0
2017-05-16T01:37:45.776Z,0
2017-05-16T01:38:26.287Z,0
2017-05-16T01:39:06.819Z,0
2017-05-16T01:39:47.413Z,0
2017-05-16T01:40:27.934Z,0
2017-05-16T01:41:08.463Z,0
2017-05-16T01:41:48.985Z,0
2017-05-16T01:42:29.507Z,0
2017-05-16T01:43:10.016Z,0
2017-05-16T01:43:50.501Z,0
2017-05-16T01:44:30.991Z,0
2017-05-16T01:45:11.494Z,0
2017-05-16T01:45:51.980Z,0
2017-05-16T01:46:32.455Z,0
2017-05-16T01:47:12.950Z,0
2017-05-16T01:47:53.477Z,0
2017-05-16T01:48:33.920Z,0
2017-05-16T01:49:14.460Z,0
2017-05-16T01:49:55.010Z,0
2017-05-16T01:50:35.502Z,0
2017-05-16T01:51:16.015Z,0
2017-05-16T01:51:56.499Z,0
2017-05-16T01:52:36.992Z,0
2017-05-16T01:53:17.520Z,0
2017-05-16T01:53:58.002Z,0
2017-05-16T01:54:38.486Z,0
2017-05-16T01:55:19.016Z,0
2017-05-16T01:55:59.501Z,0
2017-05-16T01:56:39.987Z,0
2017-05-16T01:57:20.509Z,0
2017-05-16T01:58:01.027Z,0
2017-05-16T01:58:41.552Z,0
2017-05-16T01:59:22.077Z,0
2017-05-16T02:00:02.599Z,0
2017-05-16T02:00:43.113Z,0
2017-05-16T02:01:23.629Z,0
2017-05-16T02:02:04.156Z,0
2017-05-16T02:02:44.691Z,0
2017-05-16T02:03:25.213Z,0
2017-05-16T02:04:05.732Z,0
2017-05-16T02:04:46.248Z,0
2017-05-16T02:05:26.759Z,0
2017-05-16T02:06:07.307Z,0
2017-05-16T02:06:47.827Z,0
2017-05-16T02:07:28.356Z,0
2017-05-16T02:08:08.884Z,0
2017-05-16T02:08:49.405Z,0
2017-05-16T02:09:29.979Z,0
2017-05-16T02:10:10.498Z,0
2017-05-16T02:10:51.016Z,0
2017-05-16T02:11:31.578Z,0
2017-05-16T02:12:12.075Z,0
2017-05-16T02:12:52.594Z,0
2017-05-16T02:13:33.137Z,0
2017-05-16T02:14:13.631Z,0
2017-05-16T02:14:54.151Z,0
2017-05-16T02:15:34.751Z,0
2017-05-16T02:16:15.258Z,0
2017-05-16T02:16:55.802Z,0
2017-05-16T02:17:36.382Z,0
2017-05-16T02:18:16.842Z,0
2017-05-16T02:18:57.349Z,0
2017-05-16T02:19:37.921Z,0
2017-05-16T02:20:18.402Z,0
2017-05-16T02:20:58.924Z,0
2017-05-16T02:21:39.450Z,0
2017-05-16T02:22:19.970Z,0
2017-05-16T02:23:00.485Z,0
2017-05-16T02:23:40.999Z,0
2017-05-16T02:24:21.531Z,0
2017-05-16T02:25:02.034Z,0
2017-05-16T02:25:42.551Z,0
2017-05-16T02:26:23.077Z,0
2017-05-16T02:27:03.579Z,0
2017-05-16T02:27:44.084Z,0
2017-05-16T02:28:24.594Z,0
2017-05-16T02:29:05.066Z,0
2017-05-16T02:29:45.595Z,0
2017-05-16T02:30:26.101Z,0
2017-05-16T02:31:06.575Z,0
2017-05-16T02:31:47.075Z,0
2017-05-16T02:32:27.554Z,0
2017-05-16T02:33:08.095Z,0
2017-05-16T02:33:48.611Z,0
2017-05-16T02:34:29.131Z,0
2017-05-16T02:35:09.701Z,0
2017-05-16T02:35:50.229Z,0
2017-05-16T02:36:30.790Z,0
2017-05-16T02:37:11.251Z,0
2017-05-16T02:37:51.793Z,0
2017-05-16T02:38:32.281Z,0
2017-05-16T02:39:12.794Z,0
2017-05-16T02:39:53.304Z,0
2017-05-16T02:40:33.811Z,0
2017-05-16T02:41:14.323Z,0
2017-05-16T02:41:54.841Z,0
2017-05-16T02:42:35.352Z,0
2017-05-16T02:43:15.872Z,0
2017-05-16T02:43:56.410Z,0
2017-05-16T02:44:36.930Z,0
2017-05-16T02:45:17.492Z,0
2017-05-16T02:45:58.021Z,0
2017-05-16T02:46:38.539Z,0
2017-05-16T02:47:19.042Z,0
2017-05-16T02:47:59.560Z,0
2017-05-16T02:48:40.082Z,0
2017-05-16T02:49:20.609Z,0
2017-05-16T02:50:01.140Z,0
2017-05-16T02:50:41.671Z,0
2017-05-16T02:51:22.181Z,0
2017-05-16T02:52:02.702Z,0
2017-05-16T02:52:43.223Z,0
2017-05-16T02:53:23.745Z,0
2017-05-16T02:54:04.276Z,0
2017-05-16T02:54:44.802Z,0
2017-05-16T02:55:25.299Z,0
2017-05-16T02:56:05.823Z,0
2017-05-16T02:56:46.335Z,0
2017-05-16T02:57:26.848Z,0
2017-05-16T02:58:07.346Z,0
2017-05-16T02:58:47.860Z,0
2017-05-16T02:59:28.391Z,0
2017-05-16T03:00:08.918Z,0
2017-05-16T03:00:49.439Z,0
2017-05-16T03:01:29.950Z,0
2017-05-16T03:02:10.460Z,0
2017-05-16T03:02:50.986Z,0
2017-05-16T03:03:31.487Z,0
2017-05-16T03:05:29.665Z,0
2017-05-16T03:06:10.194Z,0
2017-05-16T03:06:50.720Z,0
2017-05-16T03:07:31.230Z,0
2017-05-16T03:08:11.752Z,0
2017-05-16T03:08:52.265Z,0
2017-05-16T03:09:32.780Z,0
2017-05-16T03:10:13.296Z,0
2017-05-16T03:10:53.824Z,0
2017-05-16T03:11:34.353Z,0
2017-05-16T03:12:14.874Z,4
2017-05-16T03:12:55.393Z,4
2017-05-16T03:13:35.906Z,4
2017-05-16T03:14:16.422Z,0
2017-05-16T03:14:56.942Z,0
2017-05-16T03:15:37.460Z,4
2017-05-16T03:16:17.981Z,4
2017-05-16T03:16:58.527Z,4
2017-05-16T03:17:39.044Z,4
2017-05-16T03:18:19.557Z,4
2017-05-16T03:19:00.076Z,4
2017-05-16T03:19:40.608Z,8
2017-05-16T03:20:21.124Z,4
2017-05-16T03:21:01.632Z,8
2017-05-16T03:21:42.155Z,8
2017-05-16T03:22:22.691Z,8
2017-05-16T03:23:03.196Z,8
2017-05-16T03:23:43.707Z,8
2017-05-16T03:24:24.222Z,12
2017-05-16T03:25:04.759Z,12
2017-05-16T03:25:45.268Z,12
2017-05-16T03:26:25.781Z,12
2017-05-16T03:27:06.300Z,16
2017-05-16T03:27:46.823Z,16
2017-05-16T03:28:27.355Z,20
2017-05-16T03:29:07.876Z,20
2017-05-16T03:29:48.395Z,24
2017-05-16T03:30:28.910Z,24
2017-05-16T03:31:09.427Z,24
2017-05-16T03:31:49.938Z,28
2017-05-16T03:32:30.459Z,28
2017-05-16T03:33:10.971Z,32
2017-05-16T03:33:51.489Z,36
2017-05-16T03:34:32.001Z,36
2017-05-16T03:35:12.516Z,40
2017-05-16T03:35:53.081Z,44
2017-05-16T03:36:33.581Z,48
2017-05-16T03:37:14.099Z,48
2017-05-16T03:37:54.617Z,52
2017-05-16T03:38:35.128Z,56
2017-05-16T03:39:15.688Z,56
2017-05-16T03:39:56.168Z,64
2017-05-16T03:40:36.741Z,64
2017-05-16T03:41:17.208Z,68
2017-05-16T03:41:57.719Z,72
2017-05-16T03:42:38.237Z,76
2017-05-16T03:43:18.751Z,80
2017-05-16T03:43:59.279Z,84
2017-05-16T03:44:39.800Z,88
2017-05-16T03:45:20.324Z,92
2017-05-16T03:46:00.862Z,96
2017-05-16T03:46:41.374Z,100
2017-05-16T03:47:21.900Z,108
2017-05-16T03:48:02.415Z,112
2017-05-16T03:48:42.947Z,120
2017-05-16T03:49:23.473Z,124
2017-05-16T03:50:03.988Z,132
2017-05-16T03:50:44.523Z,140
2017-05-16T03:51:25.048Z,148
2017-05-16T03:52:05.568Z,156
2017-05-16T03:52:46.084Z,160
2017-05-16T03:53:26.613Z,168
2017-05-16T03:54:07.126Z,176
2017-05-16T03:54:47.639Z,184
2017-05-16T03:55:28.161Z,188
2017-05-16T03:56:08.685Z,200
2017-05-16T03:56:49.192Z,204
2017-05-16T03:57:29.709Z,216
2017-05-16T03:58:10.230Z,220
2017-05-16T03:58:50.734Z,232
2017-05-16T03:59:31.242Z,240
2017-05-16T04:00:11.771Z,252
2017-05-16T04:00:52.283Z,264
2017-05-16T04:01:32.807Z,272
2017-05-16T04:02:13.341Z,280
2017-05-16T04:02:53.843Z,292
2017-05-16T04:03:34.359Z,300
2017-05-16T04:04:14.888Z,308
2017-05-16T04:04:55.417Z,312
2017-05-16T04:05:35.909Z,320
2017-05-16T04:06:16.431Z,324
2017-05-16T04:06:56.964Z,336
2017-05-16T04:07:37.482Z,340
2017-05-16T04:08:18.002Z,348
2017-05-16T04:08:58.515Z,356
2017-05-16T04:09:39.019Z,364
2017-05-16T04:10:19.543Z,368
2017-05-16T04:11:00.048Z,380
2017-05-16T04:11:40.555Z,388
2017-05-16T04:12:21.073Z,400
2017-05-16T04:13:01.618Z,412
2017-05-16T04:13:42.091Z,424
2017-05-16T04:14:22.607Z,432
2017-05-16T04:15:03.146Z,444
2017-05-16T04:15:43.664Z,456
2017-05-16T04:16:24.185Z,468
2017-05-16T04:17:04.702Z,480
2017-05-16T04:17:45.225Z,492
2017-05-16T04:18:25.767Z,504
2017-05-16T04:19:06.288Z,520
2017-05-16T04:19:46.812Z,532
2017-05-16T04:20:27.333Z,544
2017-05-16T04:21:07.856Z,564
2017-05-16T04:21:48.369Z,576
2017-05-16T04:22:28.879Z,592
2017-05-16T04:23:09.412Z,604
2017-05-16T04:23:49.931Z,620
2017-05-16T04:24:30.435Z,636
2017-05-16T04:25:10.962Z,656
2017-05-16T04:25:51.486Z,688
2017-05-16T04:26:31.986Z,768
2017-05-16T04:27:12.501Z,904
2017-05-16T04:27:53.017Z,984
2017-05-16T04:28:33.552Z,936
2017-05-16T04:29:14.067Z,844
2017-05-16T04:29:54.588Z,804
2017-05-16T04:30:35.110Z,844
2017-05-16T04:31:15.626Z,872
2017-05-16T04:31:56.152Z,864
2017-05-16T04:32:36.679Z,808
2017-05-16T04:33:17.203Z,776
2017-05-16T04:33:57.721Z,760
2017-05-16T04:34:38.252Z,772
2017-05-16T04:35:18.770Z,780
2017-05-16T04:35:59.281Z,780
2017-05-16T04:36:39.794Z,788
2017-05-16T04:37:20.318Z,800
2017-05-16T04:38:00.829Z,812
2017-05-16T04:38:41.355Z,804
2017-05-16T04:39:21.881Z,804
2017-05-16T04:40:02.402Z,812
2017-05-16T04:40:42.936Z,820
2017-05-16T04:41:23.444Z,832
2017-05-16T04:42:03.961Z,852
2017-05-16T04:42:44.478Z,904
2017-05-16T04:43:25.019Z,1020
2017-05-16T04:44:05.551Z,1360
2017-05-16T04:44:46.067Z,1944
2017-05-16T04:45:26.588Z,2128
2017-05-16T04:46:07.103Z,1736
2017-05-16T04:46:47.632Z,1164
2017-05-16T04:47:28.174Z,1012
2017-05-16T04:48:08.724Z,984
2017-05-16T04:48:49.247Z,980
2017-05-16T04:49:29.783Z,980
2017-05-16T04:50:10.252Z,968
2017-05-16T04:50:50.725Z,968
2017-05-16T04:51:31.232Z,984
2017-05-16T04:52:11.797Z,1000
2017-05-16T04:52:52.314Z,1016
2017-05-16T04:53:32.798Z,1024
2017-05-16T04:54:13.296Z,1016
2017-05-16T04:54:53.789Z,1020
2017-05-16T04:55:34.349Z,1032
2017-05-16T04:56:14.876Z,1052
2017-05-16T04:56:55.353Z,1100
2017-05-16T04:57:35.917Z,1108
2017-05-16T04:58:16.425Z,1100
2017-05-16T04:58:56.971Z,1060
2017-05-16T04:59:37.479Z,1060
2017-05-16T05:00:17.915Z,1072
2017-05-16T05:00:58.370Z,1092
2017-05-16T05:01:38.892Z,1080
2017-05-16T05:02:19.390Z,1076
2017-05-16T05:03:00.018Z,1084
2017-05-16T05:03:40.487Z,1096
2017-05-16T05:04:21.026Z,1136
2017-05-16T05:05:01.581Z,1152
2017-05-16T05:05:42.085Z,1160
2017-05-16T05:06:22.582Z,1156
2017-05-16T05:07:03.124Z,1148
2017-05-16T05:07:43.611Z,1180
2017-05-16T05:08:24.043Z,1184
2017-05-16T05:09:04.519Z,1148
2017-05-16T05:09:45.066Z,1132
2017-05-16T05:10:25.473Z,1136
2017-05-16T05:11:05.989Z,1144
2017-05-16T05:11:46.516Z,1160
2017-05-16T05:12:27.023Z,1172
2017-05-16T05:13:07.624Z,1168
2017-05-16T05:13:48.092Z,1156
2017-05-16T05:14:28.579Z,1152
2017-05-16T05:15:09.089Z,1168
2017-05-16T05:15:49.617Z,1180
2017-05-16T05:16:30.055Z,1224
2017-05-16T05:17:10.563Z,1288
2017-05-16T05:17:51.081Z,1284
2017-05-16T05:18:32.156Z,1244
2017-05-16T05:19:12.658Z,1204
2017-05-16T05:19:53.828Z,1184
2017-05-16T05:20:34.291Z,1168
2017-05-16T05:21:14.781Z,1160
2017-05-16T05:21:55.283Z,1132
2017-05-16T05:22:35.782Z,1116
2017-05-16T05:23:16.321Z,1120
2017-05-16T05:23:57.067Z,1092
2017-05-16T05:24:37.515Z,1104
2017-05-16T05:25:18.039Z,1092
2017-05-16T05:25:59.506Z,1084
2017-05-16T05:26:39.991Z,1092
2017-05-16T05:27:20.698Z,1072
2017-05-16T05:28:01.150Z,1104
2017-05-16T05:28:41.707Z,1100
2017-05-16T05:29:22.182Z,1120
2017-05-16T05:30:02.730Z,1124
2017-05-16T05:30:43.251Z,1164
2017-05-16T05:31:23.736Z,1180
2017-05-16T05:32:04.217Z,1212
2017-05-16T05:32:45.395Z,1236
2017-05-16T05:33:26.040Z,1204
2017-05-16T05:34:06.536Z,1244
2017-05-16T05:34:47.021Z,1248
2017-05-16T05:35:27.581Z,1256
2017-05-16T05:36:08.324Z,1300
2017-05-16T05:36:48.875Z,1312
2017-05-16T05:37:29.551Z,1336
2017-05-16T05:38:11.086Z,1348
2017-05-16T05:38:51.587Z,1372
2017-05-16T05:39:32.123Z,1388
2017-05-16T05:40:12.644Z,1404
2017-05-16T05:40:53.121Z,1416
2017-05-16T05:41:33.625Z,1488
2017-05-16T05:42:14.155Z,1604
2017-05-16T05:42:54.780Z,1728
2017-05-16T05:43:35.679Z,1836
2017-05-16T05:44:16.268Z,1900
2017-05-16T05:44:56.697Z,2000
2017-05-16T05:45:37.619Z,2192
2017-05-16T05:46:18.589Z,2424
2017-05-16T05:46:59.408Z,2660
2017-05-16T05:47:39.913Z,2912
2017-05-16T05:48:20.406Z,2984
2017-05-16T05:49:01.113Z,3172
2017-05-16T05:49:41.415Z,3096
2017-05-16T05:50:21.910Z,3368
2017-05-16T05:51:02.378Z,3436
2017-05-16T05:51:42.912Z,3472
2017-05-16T05:52:23.386Z,3364
2017-05-16T05:53:03.906Z,3212
2017-05-16T05:53:44.384Z,3168
2017-05-16T05:54:24.900Z,3192
2017-05-16T05:55:05.416Z,3076
2017-05-16T05:55:45.910Z,2948
2017-05-16T05:56:26.421Z,3060
2017-05-16T05:57:06.905Z,3520
2017-05-16T05:57:47.611Z,3624
2017-05-16T05:58:28.042Z,3684
2017-05-16T05:59:08.571Z,3720
2017-05-16T05:59:49.041Z,3588
2017-05-16T06:00:29.560Z,3504
2017-05-16T06:01:10.031Z,3396
2017-05-16T06:01:50.541Z,3232
2017-05-16T06:02:31.049Z,3220
2017-05-16T06:03:11.580Z,3172
2017-05-16T06:03:52.079Z,3212
2017-05-16T06:04:32.591Z,3252
2017-05-16T06:05:13.057Z,3328
2017-05-16T06:05:53.546Z,3432
2017-05-16T06:06:34.044Z,3424
2017-05-16T06:07:14.538Z,3448
2017-05-16T06:07:55.065Z,3532
2017-05-16T06:08:35.518Z,3516
2017-05-16T06:09:16.042Z,3488
2017-05-16T06:09:56.567Z,3512
2017-05-16T06:10:37.028Z,3548
2017-05-16T06:11:17.501Z,3612
2017-05-16T06:11:57.999Z,3640
2017-05-16T06:12:38.473Z,3488
2017-05-16T06:13:18.986Z,3428
2017-05-16T06:14:01.277Z,3132
2017-05-16T06:14:40.531Z,3400
2017-05-16T06:15:21.039Z,3220
2017-05-16T06:16:01.512Z,3260
2017-05-16T06:16:41.974Z,3360
2017-05-16T06:17:22.460Z,3384
2017-05-16T06:18:02.993Z,3312
2017-05-16T06:18:43.457Z,3296
2017-05-16T06:19:23.998Z,3216
2017-05-16T06:20:04.475Z,3184
2017-05-16T06:20:44.956Z,3144
2017-05-16T06:21:25.479Z,3192
2017-05-16T06:22:05.931Z,3236
2017-05-16T06:22:46.441Z,3264
2017-05-16T06:23:26.897Z,3324
2017-05-16T06:24:07.423Z,3292
2017-05-16T06:24:47.958Z,3240
2017-05-16T06:25:28.461Z,3240
2017-05-16T06:26:08.928Z,3248
2017-05-16T06:26:49.417Z,3192
2017-05-16T06:27:29.867Z,3164
2017-05-16T06:28:10.420Z,3216
2017-05-16T06:28:50.936Z,3228
2017-05-16T06:29:31.487Z,3252
2017-05-16T06:30:11.967Z,3336
2017-05-16T06:30:52.456Z,3400
2017-05-16T06:31:32.975Z,3400
2017-05-16T06:32:13.484Z,3444
2017-05-16T06:32:54.307Z,3436
2017-05-16T06:33:34.860Z,3260
2017-05-16T06:34:15.138Z,3180
2017-05-16T06:34:55.669Z,3264
2017-05-16T06:35:36.166Z,3412
2017-05-16T06:36:16.673Z,3360
2017-05-16T06:36:57.178Z,3388
2017-05-16T06:37:37.676Z,3436
2017-05-16T06:38:18.196Z,3424
2017-05-16T06:38:58.690Z,3344
2017-05-16T06:39:39.152Z,3352
2017-05-16T06:40:20.072Z,3380
2017-05-16T06:41:02.055Z,3348
2017-05-16T06:41:41.933Z,3548
2017-05-16T06:42:22.410Z,3464
2017-05-16T06:43:02.933Z,3628
2017-05-16T06:43:43.433Z,3700
2017-05-16T06:44:24.432Z,3648
2017-05-16T06:45:04.930Z,3804
2017-05-16T06:45:45.399Z,3764
2017-05-16T06:46:26.246Z,3732
2017-05-16T06:47:06.444Z,3712
2017-05-16T06:47:46.938Z,3648
2017-05-16T06:48:27.435Z,3640
2017-05-16T06:49:07.946Z,3728
2017-05-16T06:49:48.413Z,3848
2017-05-16T06:50:28.973Z,3656
2017-05-16T06:51:09.441Z,3584
2017-05-16T06:51:49.971Z,3684
2017-05-16T06:52:30.454Z,3852
2017-05-16T06:53:10.949Z,3768
2017-05-16T06:53:51.452Z,3728
2017-05-16T06:54:31.936Z,3756
2017-05-16T06:55:12.477Z,3692
2017-05-16T06:55:52.937Z,3588
2017-05-16T06:56:33.454Z,3604
2017-05-16T06:57:14.096Z,3488
2017-05-16T06:57:54.544Z,3508
2017-05-16T06:58:34.993Z,3616
2017-05-16T06:59:15.512Z,3648
2017-05-16T06:59:55.964Z,3400
2017-05-16T07:00:36.472Z,3532
2017-05-16T07:01:16.960Z,3724
2017-05-16T07:01:57.445Z,3752
2017-05-16T07:02:38.001Z,3820
2017-05-16T07:03:18.452Z,3752
2017-05-16T07:03:58.940Z,3824
2017-05-16T07:04:39.464Z,3764
2017-05-16T07:05:19.910Z,3732
2017-05-16T07:06:00.363Z,3688
2017-05-16T07:06:40.913Z,3648
2017-05-16T07:07:21.403Z,3616
2017-05-16T07:08:01.880Z,3644
2017-05-16T07:08:42.350Z,3636
2017-05-16T07:09:22.926Z,3672
2017-05-16T07:10:03.378Z,3580
2017-05-16T07:10:43.893Z,3508
2017-05-16T07:11:24.396Z,3552
2017-05-16T07:12:04.878Z,3520
2017-05-16T07:12:45.373Z,3584
2017-05-16T07:13:25.855Z,3584
2017-05-16T07:14:06.382Z,3600
2017-05-16T07:14:46.840Z,3576
2017-05-16T07:15:27.339Z,3552
2017-05-16T07:16:07.848Z,3580
2017-05-16T07:16:48.396Z,3520
2017-05-16T07:17:28.853Z,3528
2017-05-16T07:18:09.377Z,3532
2017-05-16T07:18:49.910Z,3508
2017-05-16T07:19:30.399Z,3456
2017-05-16T07:20:10.883Z,3500
2017-05-16T07:20:51.375Z,3472
2017-05-16T07:21:31.940Z,3380
2017-05-16T07:22:12.426Z,3424
2017-05-16T07:22:52.907Z,3344
2017-05-16T07:23:33.389Z,3192
2017-05-16T07:24:13.890Z,3200
2017-05-16T07:24:54.633Z,3036
2017-05-16T07:25:34.967Z,3060
2017-05-16T07:26:15.452Z,3152
2017-05-16T07:26:55.956Z,3116
2017-05-16T07:27:36.449Z,3168
2017-05-16T07:28:17.026Z,3100
2017-05-16T07:28:57.498Z,3160
2017-05-16T07:29:38.036Z,3228
2017-05-16T07:30:18.567Z,3192
2017-05-16T07:30:59.086Z,3128
2017-05-16T07:31:39.571Z,3068
2017-05-16T07:32:20.069Z,3180
2017-05-16T07:33:00.587Z,3272
2017-05-16T07:33:41.110Z,3304
2017-05-16T07:34:21.627Z,3124
2017-05-16T07:35:02.182Z,3196
2017-05-16T07:35:42.651Z,3172
2017-05-16T07:36:23.151Z,3076
2017-05-16T07:37:03.684Z,3100
2017-05-16T07:37:44.153Z,3088
2017-05-16T07:38:24.643Z,3076
2017-05-16T07:39:05.121Z,3140
2017-05-16T07:39:45.605Z,3112
2017-05-16T07:40:26.095Z,3092
2017-05-16T07:41:06.599Z,3072
2017-05-16T07:41:47.142Z,3156
2017-05-16T07:42:27.645Z,3056
2017-05-16T07:43:08.147Z,3104
2017-05-16T07:43:48.658Z,3124
2017-05-16T07:44:29.104Z,3128
2017-05-16T07:45:09.596Z,3172
2017-05-16T07:45:50.116Z,3068
2017-05-16T07:46:30.672Z,3064
2017-05-16T07:47:11.171Z,3052
2017-05-16T07:47:51.684Z,3032
2017-05-16T07:48:32.151Z,3016
2017-05-16T07:49:12.651Z,2916
2017-05-16T07:49:53.273Z,2936
2017-05-16T07:50:33.743Z,2912
2017-05-16T07:51:14.224Z,2864
2017-05-16T07:51:54.677Z,2868
2017-05-16T07:52:35.184Z,2896
2017-05-16T07:53:15.674Z,2844
2017-05-16T07:53:56.164Z,2840
2017-05-16T07:54:36.670Z,2820
2017-05-16T07:55:17.233Z,2828
2017-05-16T07:55:57.683Z,2816
2017-05-16T07:56:38.185Z,2800
2017-05-16T07:57:18.693Z,2756
2017-05-16T07:57:59.184Z,2728
2017-05-16T07:58:39.703Z,2716
2017-05-16T07:59:20.131Z,2684
2017-05-16T08:00:00.673Z,2664
2017-05-16T08:00:41.307Z,2668
2017-05-16T08:01:21.792Z,2616
2017-05-16T08:02:02.265Z,2636
2017-05-16T08:02:42.842Z,2616
2017-05-16T08:03:23.482Z,2600
2017-05-16T08:04:03.759Z,2600
2017-05-16T08:04:44.337Z,2588
2017-05-16T08:05:24.769Z,2588
2017-05-16T08:06:05.284Z,2524
2017-05-16T08:06:45.781Z,2480
2017-05-16T08:07:26.268Z,2508
2017-05-16T08:08:06.926Z,2472
2017-05-16T08:08:47.315Z,2428
2017-05-16T08:09:27.777Z,2320
2017-05-16T08:10:08.252Z,2384
2017-05-16T08:10:48.849Z,2420
2017-05-16T08:11:29.278Z,2296
2017-05-16T08:12:09.730Z,2332
2017-05-16T08:12:50.212Z,2236
2017-05-16T08:13:30.739Z,2148
2017-05-16T08:14:11.233Z,2028
2017-05-16T08:14:51.692Z,1856
2017-05-16T08:15:32.202Z,1780
2017-05-16T08:16:12.694Z,1708
2017-05-16T08:16:53.166Z,1672
2017-05-16T08:17:33.663Z,1576
2017-05-16T08:18:14.163Z,1740
2017-05-16T08:18:54.677Z,1772
2017-05-16T08:19:35.196Z,1752
2017-05-16T08:20:16.023Z,1600
2017-05-16T08:20:56.590Z,1652
2017-05-16T08:21:37.053Z,1748
2017-05-16T08:22:17.587Z,1752
2017-05-16T08:22:58.084Z,1756
2017-05-16T08:23:38.594Z,1800
2017-05-16T08:24:19.102Z,1772
2017-05-16T08:24:59.949Z,1768
2017-05-16T08:25:40.190Z,1776
2017-05-16T08:26:20.647Z,1764
2017-05-16T08:27:01.209Z,1756
2017-05-16T08:27:41.702Z,1760
2017-05-16T08:28:22.143Z,1768
2017-05-16T08:29:02.634Z,1756
2017-05-16T08:29:43.159Z,1736
2017-05-16T08:30:23.660Z,1760
2017-05-16T08:31:04.160Z,1752
2017-05-16T08:31:44.658Z,1700
2017-05-16T08:32:25.144Z,1696
2017-05-16T08:33:05.639Z,1692
2017-05-16T08:33:46.128Z,1660
2017-05-16T08:34:26.618Z,1684
2017-05-16T08:35:07.146Z,1668
2017-05-16T08:35:47.630Z,1664
2017-05-16T08:36:28.179Z,1672
2017-05-16T08:37:08.677Z,1676
2017-05-16T08:37:49.127Z,1676
2017-05-16T08:38:29.647Z,1680
2017-05-16T08:39:10.136Z,1684
2017-05-16T08:39:50.659Z,1668
2017-05-16T08:40:31.119Z,1668
2017-05-16T08:41:11.634Z,1680
2017-05-16T08:41:52.176Z,1652
2017-05-16T08:42:32.678Z,1644
2017-05-16T08:43:13.169Z,1648
2017-05-16T08:43:53.690Z,1624
2017-05-16T08:44:34.153Z,1628
2017-05-16T08:45:14.648Z,1632
2017-05-16T08:45:55.151Z,1612
2017-05-16T08:46:35.660Z,1620
2017-05-16T08:47:16.129Z,1636
2017-05-16T08:47:56.660Z,1636
2017-05-16T08:48:37.141Z,1644
2017-05-16T08:49:17.674Z,1632
2017-05-16T08:49:58.187Z,1616
2017-05-16T08:50:38.662Z,1624
2017-05-16T08:51:19.190Z,1620
2017-05-16T08:51:59.679Z,1636
2017-05-16T08:52:40.190Z,1620
2017-05-16T08:53:20.706Z,1624
2017-05-16T08:54:01.220Z,1620
2017-05-16T08:54:41.730Z,1612
2017-05-16T08:55:22.204Z,1596
2017-05-16T08:56:02.725Z,1608
2017-05-16T08:56:43.204Z,1616
2017-05-16T08:57:23.713Z,1608
2017-05-16T08:58:04.517Z,1608
2017-05-16T08:58:47.588Z,1608
2017-05-16T08:59:27.294Z,1608
2017-05-16T09:00:07.924Z,1584
2017-05-16T09:00:48.421Z,1592
2017-05-16T09:01:28.800Z,1576
2017-05-16T09:02:09.326Z,1572
2017-05-16T09:02:49.780Z,1560
2017-05-16T09:03:30.335Z,1552
2017-05-16T09:04:10.818Z,1556
2017-05-16T09:04:51.349Z,1548
2017-05-16T09:05:31.807Z,1540
2017-05-16T09:06:12.322Z,1540
2017-05-16T09:06:52.761Z,1536
2017-05-16T09:07:33.277Z,1544
2017-05-16T09:08:13.787Z,1544
2017-05-16T09:08:54.258Z,1532
2017-05-16T09:09:34.786Z,1552
2017-05-16T09:10:15.295Z,1544
2017-05-16T09:10:55.811Z,1552
2017-05-16T09:11:36.311Z,1556
2017-05-16T09:12:16.801Z,1544
2017-05-16T09:12:57.339Z,1532
2017-05-16T09:13:37.934Z,1532
2017-05-16T09:14:19.074Z,1552
2017-05-16T09:14:59.524Z,1532
2017-05-16T09:15:39.993Z,1548
2017-05-16T09:16:20.484Z,1548
2017-05-16T09:17:01.043Z,1552
2017-05-16T09:17:41.513Z,1572
2017-05-16T09:18:22.005Z,1564
2017-05-16T09:19:02.563Z,1588
2017-05-16T09:19:43.070Z,1576
2017-05-16T09:20:23.628Z,1576
2017-05-16T09:21:04.105Z,1584
2017-05-16T09:21:44.630Z,1584
2017-05-16T09:22:25.114Z,1588
2017-05-16T09:23:05.637Z,1580
2017-05-16T09:23:46.140Z,1588
2017-05-16T09:24:26.638Z,1572